logo
Search for airport 
image banner adimage banner adimage banner ad
image banner ad

LTCK - Mus Sultan Alparslan

Located in Mus, Turkey

ICAO - LTCK, IATA - MSR

Data provided by Airmate  

General information

Coordinates: N38°44'41" E41°40'8"
Elevation is 4157 feet MSL.
Magnetic variation is 5.8° East
View others Airports in Mus

Operational data

Special qualification required
Current time UTC:
Current local time:
Weather
METAR: LTCK 270334Z 16003KT 130V200 3000 0400SE R29/0600U R11/P1500D MIFG SCT002 11/11 Q1018 RMK RWY11 00000KT
TAF: TAF LTCK 270140Z 2703/2712 27008KT 9999 SCT030 PROB40 TEMPO 2708/2712 15012G22KT -TSRA FEW020CB BKN030
View NOTAMs / SUP AIP / TFR affecting this airport [VIEW]
Communications frequencies: [VIEW]

Runways:

RWY identifierQFULength (ft)Width (ft)SurfaceLDA (ft)
11L116°11647148CONC+ASPH11647
29R296°11647148CONC+ASPH11647
11R116°1164775CONC+ASPH11647
29L296°1164775CONC+ASPH11647

Airport contact information

Address: Mus Turkey

Satellite view of LTCK